createdAt,value
2023-04-01T00:00:06.646Z,24.83
2023-04-01T00:01:06.604Z,24.83
2023-04-01T00:02:06.658Z,24.81
2023-04-01T00:03:06.671Z,24.83
2023-04-01T00:04:06.596Z,24.81
2023-04-01T00:05:22.066Z,24.80
2023-04-01T00:06:06.465Z,24.81
2023-04-01T00:07:06.439Z,24.81
2023-04-01T00:08:06.421Z,24.83
2023-04-01T00:09:06.383Z,24.83
2023-04-01T00:10:06.353Z,24.78
2023-04-01T00:11:06.339Z,24.84
2023-04-01T00:12:06.320Z,24.81
2023-04-01T00:13:06.270Z,24.81
2023-04-01T00:14:06.252Z,24.81
2023-04-01T00:15:06.204Z,24.83
2023-04-01T00:17:06.214Z,24.80
2023-04-01T00:18:06.213Z,24.81
2023-04-01T00:19:06.081Z,24.80
2023-04-01T00:20:06.067Z,24.81
2023-04-01T00:21:06.016Z,24.83
2023-04-01T00:22:05.981Z,24.81
2023-04-01T00:23:05.942Z,24.81
2023-04-01T00:24:05.921Z,24.80
2023-04-01T00:25:05.938Z,24.80
2023-04-01T00:26:05.848Z,24.81
2023-04-01T00:27:05.837Z,24.81
2023-04-01T00:28:05.802Z,24.83
2023-04-01T00:29:05.797Z,24.81
2023-04-01T00:30:05.738Z,24.83
2023-04-01T00:31:05.759Z,24.81
2023-04-01T00:32:05.765Z,24.80
2023-04-01T00:33:05.694Z,24.81
2023-04-01T00:34:05.658Z,24.83
2023-04-01T00:35:05.603Z,24.81
2023-04-01T00:36:05.610Z,24.80
2023-04-01T00:37:05.540Z,24.81
2023-04-01T00:38:05.554Z,24.83
2023-04-01T00:39:05.591Z,24.80
2023-04-01T00:40:05.625Z,24.80
2023-04-01T00:41:05.652Z,24.81
2023-04-01T00:42:05.705Z,24.83
2023-04-01T00:43:05.710Z,24.81
2023-04-01T00:44:05.754Z,24.80
2023-04-01T00:45:05.799Z,24.80
2023-04-01T00:46:05.813Z,24.80
2023-04-01T00:47:05.891Z,24.81
2023-04-01T00:48:05.980Z,24.81
2023-04-01T00:49:05.916Z,24.80
2023-04-01T00:50:05.958Z,24.81
2023-04-01T00:51:05.978Z,24.78
2023-04-01T00:52:06.026Z,24.80
2023-04-01T00:53:05.995Z,24.80
2023-04-01T00:54:05.981Z,24.80
2023-04-01T00:55:05.940Z,24.78
2023-04-01T00:56:05.925Z,24.80
2023-04-01T00:57:05.951Z,24.81
2023-04-01T00:58:05.842Z,24.80
2023-04-01T00:59:05.837Z,24.78
2023-04-01T01:00:05.814Z,24.80
2023-04-01T01:01:05.816Z,24.78
2023-04-01T01:02:05.772Z,24.80
2023-04-01T01:03:05.811Z,24.78
2023-04-01T01:04:05.788Z,24.78
2023-04-01T01:05:05.811Z,24.80
2023-04-01T01:06:05.838Z,24.80
2023-04-01T01:07:05.883Z,24.78
2023-04-01T01:08:05.909Z,24.78
2023-04-01T01:09:05.928Z,24.78
2023-04-01T01:10:05.968Z,24.78
2023-04-01T01:11:06.006Z,24.78
2023-04-01T01:12:06.030Z,24.77
2023-04-01T01:13:06.050Z,24.77
2023-04-01T01:14:06.089Z,24.80
2023-04-01T01:15:06.129Z,24.80
2023-04-01T01:16:06.165Z,24.78
2023-04-01T01:17:06.175Z,24.80
2023-04-01T01:18:06.266Z,24.77
2023-04-01T01:19:06.240Z,24.80
2023-04-01T01:20:15.516Z,24.78
2023-04-01T01:21:06.268Z,24.80
2023-04-01T01:22:06.247Z,24.80
2023-04-01T01:23:06.200Z,24.80
2023-04-01T01:24:06.187Z,24.78
2023-04-01T01:25:06.161Z,24.80
2023-04-01T01:26:06.124Z,24.77
2023-04-01T01:27:06.091Z,24.80
2023-04-01T01:28:06.080Z,24.78
2023-04-01T01:29:06.022Z,24.78
2023-04-01T01:30:06.007Z,24.80
2023-04-01T01:31:05.988Z,24.80
2023-04-01T01:32:05.936Z,24.81
2023-04-01T01:33:05.994Z,24.80
2023-04-01T01:34:05.950Z,24.78
2023-04-01T01:35:05.986Z,24.78
2023-04-01T01:36:06.032Z,24.78
2023-04-01T01:37:06.034Z,24.78
2023-04-01T01:38:06.057Z,24.80
2023-04-01T01:39:06.088Z,24.80
2023-04-01T01:40:06.130Z,24.78
2023-04-01T01:41:06.158Z,24.78
2023-04-01T01:42:06.191Z,24.80
2023-04-01T01:43:06.246Z,24.77
2023-04-01T01:44:06.268Z,24.78
2023-04-01T01:45:06.325Z,24.80
2023-04-01T01:46:06.397Z,24.77
2023-04-01T01:47:06.375Z,24.77
2023-04-01T01:48:06.494Z,24.77
2023-04-01T01:49:06.429Z,24.77
2023-04-01T01:50:06.471Z,24.78
2023-04-01T01:51:06.494Z,24.77
2023-04-01T01:52:06.541Z,24.77
2023-04-01T01:53:06.523Z,24.77
2023-04-01T01:54:06.475Z,24.75
2023-04-01T01:55:06.459Z,24.78
2023-04-01T01:56:06.433Z,24.75
2023-04-01T01:57:06.461Z,24.77
2023-04-01T01:58:06.376Z,24.78
2023-04-01T01:59:06.338Z,24.80
2023-04-01T02:00:06.303Z,24.78
2023-04-01T02:01:06.316Z,24.77
2023-04-01T02:02:06.232Z,24.77
2023-04-01T02:03:06.254Z,24.75
2023-04-01T02:04:06.324Z,24.78
2023-04-01T02:05:06.287Z,24.77
2023-04-01T02:06:06.310Z,24.78
2023-04-01T02:07:06.366Z,24.78
2023-04-01T02:08:06.403Z,24.75
2023-04-01T02:09:06.444Z,24.75
2023-04-01T02:10:06.447Z,24.75
2023-04-01T02:11:06.500Z,24.75
2023-04-01T02:12:06.528Z,24.78
2023-04-01T02:13:06.571Z,24.77
2023-04-01T02:14:06.574Z,24.77
2023-04-01T02:15:06.646Z,24.80
2023-04-01T02:16:06.670Z,24.78
2023-04-01T02:17:06.709Z,24.77
2023-04-01T02:18:06.778Z,24.78
2023-04-01T02:19:06.733Z,24.77
2023-04-01T02:20:06.779Z,24.77
2023-04-01T02:21:06.787Z,24.77
2023-04-01T02:22:06.812Z,24.75
2023-04-01T02:23:06.793Z,24.78
2023-04-01T02:24:06.763Z,24.74
2023-04-01T02:25:06.720Z,24.77
2023-04-01T02:26:06.684Z,24.75
2023-04-01T02:27:06.662Z,24.77
2023-04-01T02:28:06.635Z,24.74
2023-04-01T02:29:06.611Z,24.73
2023-04-01T02:30:06.638Z,24.75
2023-04-01T02:31:06.552Z,24.78
2023-04-01T02:32:06.540Z,24.75
2023-04-01T02:33:06.714Z,24.75
2023-04-01T02:34:06.619Z,24.77
2023-04-01T02:35:06.665Z,24.74
2023-04-01T02:36:06.738Z,24.74
2023-04-01T02:37:06.741Z,24.78
2023-04-01T02:38:06.776Z,24.78
2023-04-01T02:39:06.817Z,24.74
2023-04-01T02:40:06.849Z,24.75
2023-04-01T02:41:06.889Z,24.74
2023-04-01T02:42:06.930Z,24.78
2023-04-01T02:43:06.972Z,24.75
2023-04-01T02:44:07.030Z,24.71
2023-04-01T02:45:07.044Z,24.75
2023-04-01T02:46:07.104Z,24.75
2023-04-01T02:47:07.233Z,24.77
2023-04-01T02:48:07.204Z,24.73
2023-04-01T02:49:07.211Z,24.75
2023-04-01T02:50:07.266Z,24.74
2023-04-01T02:51:07.287Z,24.75
2023-04-01T02:52:07.337Z,24.75
2023-04-01T02:53:07.371Z,24.75
2023-04-01T02:54:07.412Z,24.75
2023-04-01T02:55:07.455Z,24.75
2023-04-01T02:56:07.502Z,24.75
2023-04-01T02:57:07.600Z,24.74
2023-04-01T02:58:07.565Z,24.77
2023-04-01T02:59:07.593Z,24.73
2023-04-01T03:00:07.645Z,24.74
2023-04-01T03:01:07.733Z,24.75
2023-04-01T03:02:07.840Z,24.75
2023-04-01T03:03:08.005Z,24.74
2023-04-01T03:04:07.808Z,24.74
2023-04-01T03:05:07.836Z,24.74
2023-04-01T03:06:07.894Z,24.74
2023-04-01T03:07:07.929Z,24.75
2023-04-01T03:08:07.948Z,24.75
2023-04-01T03:09:07.992Z,24.75
2023-04-01T03:10:08.038Z,24.74
2023-04-01T03:11:08.079Z,24.74
2023-04-01T03:12:08.173Z,24.74
2023-04-01T03:13:08.073Z,24.74
2023-04-01T03:14:08.044Z,24.74
2023-04-01T03:15:10.890Z,24.74
2023-04-01T03:16:08.034Z,24.73
2023-04-01T03:17:07.963Z,24.75
2023-04-01T03:18:08.003Z,24.78
2023-04-01T03:19:07.918Z,24.71
2023-04-01T03:20:07.962Z,24.71
2023-04-01T03:21:07.875Z,24.71
2023-04-01T03:22:07.828Z,24.73
2023-04-01T03:23:07.807Z,24.74
2023-04-01T03:24:07.755Z,24.73
2023-04-01T03:25:07.735Z,24.74
2023-04-01T03:26:07.711Z,24.73
2023-04-01T03:27:07.665Z,24.73
2023-04-01T03:28:07.669Z,24.74
2023-04-01T03:29:07.690Z,24.74
2023-04-01T03:30:07.829Z,24.73
2023-04-01T03:31:07.820Z,24.74
2023-04-01T03:32:07.818Z,24.73
2023-04-01T03:33:07.929Z,24.73
2023-04-01T03:34:07.916Z,24.74
2023-04-01T03:35:07.925Z,24.70
2023-04-01T03:36:07.999Z,24.74
2023-04-01T03:37:07.992Z,24.71
2023-04-01T03:38:08.036Z,24.73
2023-04-01T03:39:08.009Z,24.73
2023-04-01T03:40:07.981Z,24.73
2023-04-01T03:41:07.964Z,24.71
2023-04-01T03:42:07.924Z,24.71
2023-04-01T03:43:07.935Z,24.71
2023-04-01T03:44:07.857Z,24.73
2023-04-01T03:45:07.836Z,24.73
2023-04-01T03:46:07.873Z,24.73
2023-04-01T03:47:07.794Z,24.73
2023-04-01T03:48:07.816Z,24.73
2023-04-01T03:49:07.832Z,24.71
2023-04-01T03:50:07.862Z,24.73
2023-04-01T03:51:07.917Z,24.74
2023-04-01T03:52:07.955Z,24.73
2023-04-01T03:53:07.975Z,24.71
2023-04-01T03:54:08.010Z,24.71
2023-04-01T03:55:08.055Z,24.71
2023-04-01T03:56:08.105Z,24.73
2023-04-01T03:57:08.193Z,24.71
2023-04-01T03:58:08.184Z,24.71
2023-04-01T03:59:08.233Z,24.71
2023-04-01T04:00:08.257Z,24.71
2023-04-01T04:01:08.289Z,24.71
2023-04-01T04:02:08.331Z,24.73
2023-04-01T04:03:08.473Z,24.71
2023-04-01T04:04:08.410Z,24.73
2023-04-01T04:05:08.460Z,24.70
2023-04-01T04:06:08.471Z,24.74
2023-04-01T04:07:08.510Z,24.70
2023-04-01T04:08:08.546Z,24.70
2023-04-01T04:09:08.601Z,24.70
2023-04-01T04:10:08.625Z,24.71
2023-04-01T04:11:08.665Z,24.71
2023-04-01T04:12:08.712Z,24.71
2023-04-01T04:13:08.743Z,24.71
2023-04-01T04:14:08.790Z,24.70
2023-04-01T04:15:08.838Z,24.71
2023-04-01T04:16:08.943Z,24.71
2023-04-01T04:17:08.913Z,24.68
2023-04-01T04:18:08.958Z,24.70
2023-04-01T04:19:09.010Z,24.71
2023-04-01T04:20:09.050Z,24.70
2023-04-01T04:21:09.063Z,24.71
2023-04-01T04:22:09.104Z,24.73
2023-04-01T04:23:09.154Z,24.73
2023-04-01T04:24:09.186Z,24.68
2023-04-01T04:25:09.240Z,24.71
2023-04-01T04:26:09.290Z,24.71
2023-04-01T04:27:09.328Z,24.68
2023-04-01T04:28:09.324Z,24.71
2023-04-01T04:29:09.346Z,24.68
2023-04-01T04:30:09.370Z,24.70
2023-04-01T04:31:09.444Z,24.71
2023-04-01T04:32:09.453Z,24.71
2023-04-01T04:33:09.540Z,24.71
2023-04-01T04:34:09.512Z,24.70
2023-04-01T04:35:09.543Z,24.71
2023-04-01T04:36:09.621Z,24.73
2023-04-01T04:37:09.644Z,24.73
2023-04-01T04:38:09.685Z,24.70
2023-04-01T04:39:09.700Z,24.71
2023-04-01T04:40:09.756Z,24.70
2023-04-01T04:41:09.783Z,24.71
2023-04-01T04:42:09.823Z,24.70
2023-04-01T04:43:09.858Z,24.70
2023-04-01T04:44:09.896Z,24.70
2023-04-01T04:45:09.950Z,24.70
2023-04-01T04:46:09.975Z,24.71
2023-04-01T04:47:10.104Z,24.73
2023-04-01T04:48:10.135Z,24.71
2023-04-01T04:49:10.076Z,24.70
2023-04-01T04:50:10.143Z,24.70
2023-04-01T04:51:10.152Z,24.70
2023-04-01T04:52:10.192Z,24.71
2023-04-01T04:53:10.234Z,24.70
2023-04-01T04:54:10.262Z,24.68
2023-04-01T04:55:10.320Z,24.70
2023-04-01T04:56:10.339Z,24.68
2023-04-01T04:57:10.504Z,24.68
2023-04-01T04:58:10.425Z,24.71
2023-04-01T04:59:10.471Z,24.71
2023-04-01T05:00:10.529Z,24.70
2023-04-01T05:01:10.642Z,24.71
2023-04-01T05:02:10.640Z,24.70
2023-04-01T05:03:10.741Z,24.70
2023-04-01T05:04:10.678Z,24.71
2023-04-01T05:05:10.717Z,24.68
2023-04-01T05:06:10.750Z,24.68
2023-04-01T05:07:10.800Z,24.68
2023-04-01T05:08:10.834Z,24.68
2023-04-01T05:09:10.881Z,24.68
2023-04-01T05:10:10.916Z,24.70
2023-04-01T05:11:13.633Z,24.68
2023-04-01T05:12:10.924Z,24.70
2023-04-01T05:13:10.887Z,24.67
2023-04-01T05:14:10.842Z,24.70
2023-04-01T05:15:10.813Z,24.67
2023-04-01T05:16:10.946Z,24.70
2023-04-01T05:17:10.805Z,24.67
2023-04-01T05:18:10.728Z,24.68
2023-04-01T05:19:10.704Z,24.70
2023-04-01T05:20:10.679Z,24.70
2023-04-01T05:21:10.651Z,24.68
2023-04-01T05:22:10.649Z,24.70
2023-04-01T05:23:10.618Z,24.70
2023-04-01T05:24:10.696Z,24.71
2023-04-01T05:25:10.708Z,24.70
2023-04-01T05:26:10.747Z,24.71
2023-04-01T05:27:10.817Z,24.68
2023-04-01T05:28:10.832Z,24.70
2023-04-01T05:29:10.861Z,24.68
2023-04-01T05:30:10.907Z,24.70
2023-04-01T05:31:11.074Z,24.70
2023-04-01T05:32:10.996Z,24.71
2023-04-01T05:33:11.035Z,24.70
2023-04-01T05:34:11.073Z,24.71
2023-04-01T05:35:11.106Z,24.71
2023-04-01T05:36:11.228Z,24.71
2023-04-01T05:37:11.196Z,24.73
2023-04-01T05:38:11.240Z,24.71
2023-04-01T05:39:11.251Z,24.71
2023-04-01T05:40:11.281Z,24.74
2023-04-01T05:41:11.331Z,24.71
2023-04-01T05:42:11.367Z,24.70
2023-04-01T05:43:11.441Z,24.68
2023-04-01T05:44:11.449Z,24.68
2023-04-01T05:45:11.490Z,24.73
2023-04-01T05:46:11.586Z,24.71
2023-04-01T05:47:11.597Z,24.73
2023-04-01T05:48:11.651Z,24.73
2023-04-01T05:49:11.649Z,24.70
2023-04-01T05:50:11.701Z,24.71
2023-04-01T05:51:11.729Z,24.73
2023-04-01T05:52:11.786Z,24.74
2023-04-01T05:53:11.817Z,24.73
2023-04-01T05:54:11.891Z,24.73
2023-04-01T05:55:11.883Z,24.73
2023-04-01T05:56:11.932Z,24.73
2023-04-01T05:57:12.009Z,24.73
2023-04-01T05:58:12.036Z,24.73
2023-04-01T05:59:12.051Z,24.73
2023-04-01T06:00:12.100Z,24.73
2023-04-01T06:01:15.805Z,24.74
2023-04-01T06:02:12.097Z,24.74
2023-04-01T06:03:12.111Z,24.73
2023-04-01T06:04:12.167Z,24.74
2023-04-01T06:05:12.063Z,24.74
2023-04-01T06:06:12.018Z,24.73
2023-04-01T06:07:11.982Z,24.70
2023-04-01T06:08:11.975Z,24.71
2023-04-01T06:09:11.947Z,24.74
2023-04-01T06:10:11.939Z,24.74
2023-04-01T06:11:11.920Z,24.73
2023-04-01T06:12:11.916Z,24.71
2023-04-01T06:13:11.909Z,24.74
2023-04-01T06:14:11.911Z,24.75
2023-04-01T06:15:11.866Z,24.75
2023-04-01T06:16:11.904Z,24.77
2023-04-01T06:17:11.825Z,24.74
2023-04-01T06:18:11.845Z,24.74
2023-04-01T06:19:11.791Z,24.75
2023-04-01T06:20:11.770Z,24.74
2023-04-01T06:21:11.740Z,24.74
2023-04-01T06:22:11.713Z,24.77
2023-04-01T06:23:11.733Z,24.75
2023-04-01T06:24:11.691Z,24.75
2023-04-01T06:25:11.686Z,24.75
2023-04-01T06:26:11.646Z,24.75
2023-04-01T06:27:11.620Z,24.77
2023-04-01T06:28:11.618Z,24.77
2023-04-01T06:29:11.586Z,24.77
2023-04-01T06:30:11.583Z,24.75
2023-04-01T06:31:11.631Z,24.75
2023-04-01T06:32:11.604Z,24.77
2023-04-01T06:33:11.636Z,24.80
2023-04-01T06:34:11.623Z,24.80
2023-04-01T06:35:11.602Z,24.80
2023-04-01T06:36:11.611Z,24.81
2023-04-01T06:37:11.556Z,24.80
2023-04-01T06:38:11.548Z,24.78
2023-04-01T06:39:11.524Z,24.81
2023-04-01T06:40:11.494Z,24.81
2023-04-01T06:41:11.464Z,24.81
2023-04-01T06:42:11.454Z,24.81
2023-04-01T06:43:11.454Z,24.83
2023-04-01T06:44:11.421Z,24.80
2023-04-01T06:45:11.389Z,24.83
2023-04-01T06:46:11.399Z,24.83
2023-04-01T06:47:11.347Z,24.80
2023-04-01T06:48:11.375Z,24.83
2023-04-01T06:49:11.313Z,24.81
2023-04-01T06:50:11.290Z,24.83
2023-04-01T06:51:11.264Z,24.81
2023-04-01T06:52:11.243Z,24.83
2023-04-01T06:53:11.215Z,24.84
2023-04-01T06:54:11.199Z,24.85
2023-04-01T06:55:11.188Z,24.83
2023-04-01T06:56:11.154Z,24.85
2023-04-01T06:57:11.180Z,24.84
2023-04-01T06:58:11.124Z,24.84
2023-04-01T06:59:11.079Z,24.87
2023-04-01T07:00:11.251Z,24.88
2023-04-01T07:01:11.034Z,24.88
2023-04-01T07:02:10.995Z,24.88
2023-04-01T07:03:11.030Z,24.88
2023-04-01T07:04:11.008Z,24.88
2023-04-01T07:05:11.121Z,24.90
2023-04-01T07:06:10.912Z,24.90
2023-04-01T07:07:10.881Z,24.91
2023-04-01T07:08:10.879Z,24.88
2023-04-01T07:09:10.832Z,24.91
2023-04-01T07:10:10.814Z,24.91
2023-04-01T07:11:10.781Z,24.92
2023-04-01T07:12:10.757Z,24.95
2023-04-01T07:13:10.750Z,24.95
2023-04-01T07:14:10.729Z,24.97
2023-04-01T07:15:10.735Z,25.01
2023-04-01T07:16:10.766Z,24.99
2023-04-01T07:17:10.801Z,25.01
2023-04-01T07:18:10.817Z,25.02
2023-04-01T07:19:10.823Z,25.05
2023-04-01T07:20:10.834Z,25.05
2023-04-01T07:21:10.858Z,25.07
2023-04-01T07:22:10.870Z,25.08
2023-04-01T07:23:10.903Z,25.11
2023-04-01T07:24:10.872Z,25.14
2023-04-01T07:25:10.825Z,25.12
2023-04-01T07:26:10.807Z,25.16
2023-04-01T07:27:10.779Z,25.18
2023-04-01T07:28:10.777Z,25.16
2023-04-01T07:29:10.737Z,25.15
2023-04-01T07:30:10.695Z,25.14
2023-04-01T07:31:10.709Z,25.15
2023-04-01T07:32:10.654Z,25.16
2023-04-01T07:33:10.704Z,25.14
2023-04-01T07:34:10.611Z,25.15
2023-04-01T07:35:10.619Z,25.14
2023-04-01T07:36:10.586Z,25.15
2023-04-01T07:37:10.524Z,25.14
2023-04-01T07:38:10.550Z,25.15
2023-04-01T07:39:10.518Z,25.18
2023-04-01T07:40:10.507Z,25.18
2023-04-01T07:41:10.509Z,25.16
2023-04-01T07:42:10.519Z,25.15
2023-04-01T07:43:10.528Z,25.15
2023-04-01T07:44:10.556Z,25.21
2023-04-01T07:45:10.546Z,25.21
2023-04-01T07:46:10.589Z,25.23
2023-04-01T07:47:10.558Z,25.25
2023-04-01T07:48:10.681Z,25.28
2023-04-01T07:49:10.583Z,25.28
2023-04-01T07:50:10.573Z,25.30
2023-04-01T07:51:10.574Z,25.33
2023-04-01T07:52:10.596Z,25.36
2023-04-01T07:53:10.565Z,25.39
2023-04-01T07:54:10.589Z,25.42
2023-04-01T07:55:10.564Z,25.47
2023-04-01T07:56:11.565Z,25.50
2023-04-01T07:57:10.583Z,25.52
2023-04-01T07:58:10.530Z,25.59
2023-04-01T07:59:10.518Z,25.61
2023-04-01T08:00:10.483Z,25.64
2023-04-01T08:01:10.460Z,25.60
2023-04-01T08:02:10.447Z,25.66
2023-04-01T08:03:10.492Z,25.66
2023-04-01T08:04:10.610Z,25.71
2023-04-01T08:05:10.365Z,25.73
2023-04-01T08:06:10.341Z,25.74
2023-04-01T08:07:10.316Z,25.80
2023-04-01T08:08:10.280Z,25.81
2023-04-01T08:09:10.268Z,25.78
2023-04-01T08:10:10.262Z,25.81
2023-04-01T08:11:10.202Z,25.81
2023-04-01T08:12:10.194Z,25.85
2023-04-01T08:13:10.155Z,25.85
2023-04-01T08:14:10.139Z,25.88
2023-04-01T08:15:10.096Z,25.89
2023-04-01T08:16:10.146Z,25.91
2023-04-01T08:17:10.047Z,25.94
2023-04-01T08:18:10.042Z,25.97
2023-04-01T08:19:10.060Z,25.97
2023-04-01T08:20:10.075Z,25.99
2023-04-01T08:21:10.084Z,26.01
2023-04-01T08:22:10.102Z,26.01
2023-04-01T08:23:10.140Z,26.04
2023-04-01T08:24:10.186Z,26.04
2023-04-01T08:25:10.215Z,26.08
2023-04-01T08:26:10.236Z,26.09
2023-04-01T08:27:10.270Z,26.09
2023-04-01T08:28:10.300Z,26.11
2023-04-01T08:29:10.319Z,26.12
2023-04-01T08:30:10.493Z,26.14
2023-04-01T08:31:10.368Z,26.15
2023-04-01T08:32:10.477Z,26.18
2023-04-01T08:33:10.488Z,26.15
2023-04-01T08:34:10.477Z,26.19
2023-04-01T08:35:10.502Z,26.16
2023-04-01T08:36:10.558Z,26.18
2023-04-01T08:37:10.561Z,26.19
2023-04-01T08:38:10.585Z,26.16
2023-04-01T08:39:10.613Z,26.19
2023-04-01T08:40:10.636Z,26.18
2023-04-01T08:41:10.661Z,26.21
2023-04-01T08:42:10.694Z,26.23
2023-04-01T08:43:10.709Z,26.25
2023-04-01T08:44:10.746Z,26.25
2023-04-01T08:45:12.501Z,26.28
2023-04-01T08:46:10.778Z,26.26
2023-04-01T08:47:10.707Z,26.31
2023-04-01T08:48:10.727Z,26.28
2023-04-01T08:49:10.737Z,26.33
2023-04-01T08:50:10.622Z,26.33
2023-04-01T08:51:10.559Z,26.38
2023-04-01T08:52:10.526Z,26.40
2023-04-01T08:53:10.528Z,26.40
2023-04-01T08:54:10.482Z,26.40
2023-04-01T08:55:10.449Z,26.42
2023-04-01T08:56:10.414Z,26.43
2023-04-01T08:57:10.432Z,26.47
2023-04-01T08:58:10.334Z,26.49
2023-04-01T08:59:10.303Z,26.49
2023-04-01T09:00:10.317Z,26.47
2023-04-01T09:01:10.238Z,26.51
2023-04-01T09:02:10.253Z,26.46
2023-04-01T09:03:10.279Z,26.44
2023-04-01T09:04:10.178Z,26.47
2023-04-01T09:05:10.112Z,26.47
2023-04-01T09:06:10.137Z,26.47
2023-04-01T09:07:12.209Z,26.50
2023-04-01T09:08:10.328Z,26.54
2023-04-01T09:09:10.353Z,26.56
2023-04-01T09:10:10.380Z,26.57
2023-04-01T09:11:10.380Z,26.56
2023-04-01T09:12:10.459Z,26.54
2023-04-01T09:13:10.419Z,26.59
2023-04-01T09:14:10.430Z,26.64
2023-04-01T09:15:10.446Z,26.61
2023-04-01T09:16:10.483Z,26.59
2023-04-01T09:17:10.485Z,26.59
2023-04-01T09:18:10.541Z,26.60
2023-04-01T09:19:11.131Z,26.60
2023-04-01T09:20:10.514Z,26.60
2023-04-01T09:21:10.518Z,26.66
2023-04-01T09:22:10.537Z,26.67
2023-04-01T09:23:10.555Z,26.67
2023-04-01T09:24:10.573Z,26.71
2023-04-01T09:25:10.576Z,26.71
2023-04-01T09:26:10.586Z,26.76
2023-04-01T09:27:10.581Z,26.78
2023-04-01T09:28:10.594Z,26.77
2023-04-01T09:29:10.597Z,26.76
2023-04-01T09:30:10.603Z,26.73
2023-04-01T09:31:10.613Z,26.76
2023-04-01T09:32:10.596Z,26.74
2023-04-01T09:33:10.618Z,26.76
2023-04-01T09:34:10.638Z,26.73
2023-04-01T09:35:10.639Z,26.73
2023-04-01T09:36:10.636Z,26.73
2023-04-01T09:37:10.620Z,26.76
2023-04-01T09:38:10.634Z,26.74
2023-04-01T09:39:10.635Z,26.73
2023-04-01T09:40:10.648Z,26.74
2023-04-01T09:41:10.653Z,26.77
2023-04-01T09:42:10.659Z,26.76
2023-04-01T09:43:10.664Z,26.76
2023-04-01T09:44:10.674Z,26.73
2023-04-01T09:45:10.668Z,26.73
2023-04-01T09:46:10.705Z,26.71
2023-04-01T09:47:10.685Z,26.71
2023-04-01T09:48:10.758Z,26.71
2023-04-01T09:49:10.692Z,26.70
2023-04-01T09:50:10.708Z,26.70
2023-04-01T09:51:10.708Z,26.70
2023-04-01T09:52:10.711Z,26.70
2023-04-01T09:53:10.717Z,26.71
2023-04-01T09:54:10.726Z,26.70
2023-04-01T09:55:10.738Z,26.74
2023-04-01T09:56:10.716Z,26.78
2023-04-01T09:57:10.750Z,26.81
2023-04-01T09:58:10.701Z,26.78
2023-04-01T09:59:10.689Z,26.80
2023-04-01T10:00:10.700Z,26.78
2023-04-01T10:01:10.679Z,26.81
2023-04-01T10:02:10.750Z,26.83
2023-04-01T10:03:10.706Z,26.85
2023-04-01T10:04:10.670Z,26.90
2023-04-01T10:05:10.685Z,26.91
2023-04-01T10:06:10.749Z,26.88
2023-04-01T10:07:10.625Z,26.85
2023-04-01T10:08:10.612Z,26.84
2023-04-01T10:09:10.581Z,26.88
2023-04-01T10:10:10.543Z,26.88
2023-04-01T10:11:10.493Z,26.90
2023-04-01T10:12:10.461Z,26.91
2023-04-01T10:13:10.437Z,26.95
2023-04-01T10:14:10.401Z,26.99
2023-04-01T10:15:10.361Z,26.99
2023-04-01T10:16:10.336Z,26.95
2023-04-01T10:17:10.277Z,26.94
2023-04-01T10:18:10.256Z,26.94
2023-04-01T10:19:10.197Z,26.94
2023-04-01T10:20:10.175Z,26.91
2023-04-01T10:21:10.121Z,26.91
2023-04-01T10:22:10.078Z,26.93
2023-04-01T10:23:10.029Z,26.97
2023-04-01T10:24:10.016Z,27.02
2023-04-01T10:25:09.974Z,27.05
2023-04-01T10:26:09.914Z,27.09
2023-04-01T10:27:09.873Z,27.11
2023-04-01T10:28:09.847Z,27.16
2023-04-01T10:29:09.791Z,27.15
2023-04-01T10:30:09.756Z,27.12
2023-04-01T10:31:09.731Z,27.11
2023-04-01T10:32:09.913Z,27.16
2023-04-01T10:33:09.666Z,27.19
2023-04-01T10:34:09.592Z,27.18
2023-04-01T10:35:09.561Z,27.15
2023-04-01T10:36:09.591Z,27.13
2023-04-01T10:37:09.466Z,27.12
2023-04-01T10:38:09.431Z,27.12
2023-04-01T10:39:09.379Z,27.18
2023-04-01T10:40:09.365Z,27.22
2023-04-01T10:41:09.296Z,27.25
2023-04-01T10:42:09.271Z,27.30
2023-04-01T10:43:09.220Z,27.32
2023-04-01T10:44:09.188Z,27.39
2023-04-01T10:45:09.133Z,27.39
2023-04-01T10:46:09.139Z,27.43
2023-04-01T10:47:09.044Z,27.45
2023-04-01T10:48:09.127Z,27.42
2023-04-01T10:49:08.968Z,27.39
2023-04-01T10:50:08.937Z,27.39
2023-04-01T10:51:08.889Z,27.39
2023-04-01T10:52:08.840Z,27.46
2023-04-01T10:53:08.797Z,27.50
2023-04-01T10:54:08.760Z,27.47
2023-04-01T10:55:08.721Z,27.49
2023-04-01T10:56:08.706Z,27.56
2023-04-01T10:57:08.765Z,27.58
2023-04-01T10:58:08.734Z,27.60
2023-04-01T10:59:08.790Z,27.64
2023-04-01T11:00:08.753Z,27.61
2023-04-01T11:01:08.866Z,27.67
2023-04-01T11:02:12.061Z,27.71
2023-04-01T11:03:08.882Z,27.74
2023-04-01T11:04:08.727Z,27.77
2023-04-01T11:05:08.676Z,27.79
2023-04-01T11:06:08.648Z,27.77
2023-04-01T11:07:08.576Z,27.77
2023-04-01T11:08:08.533Z,27.79
2023-04-01T11:09:08.489Z,27.75
2023-04-01T11:10:08.441Z,27.83
2023-04-01T11:11:08.425Z,27.83
2023-04-01T11:12:08.362Z,27.90
2023-04-01T11:13:08.301Z,27.90
2023-04-01T11:14:08.264Z,27.87
2023-04-01T11:15:08.225Z,27.85
2023-04-01T11:16:08.246Z,27.84
2023-04-01T11:17:08.128Z,27.85
2023-04-01T11:18:08.091Z,27.90
2023-04-01T11:19:08.031Z,27.90
2023-04-01T11:20:07.967Z,27.87
2023-04-01T11:21:07.936Z,27.84
2023-04-01T11:22:07.871Z,27.83
2023-04-01T11:23:07.887Z,27.81
2023-04-01T11:24:07.935Z,27.80
2023-04-01T11:25:07.934Z,27.80
2023-04-01T11:26:07.963Z,27.84
2023-04-01T11:27:08.000Z,27.81
2023-04-01T11:28:07.985Z,27.80
2023-04-01T11:29:07.999Z,27.77
2023-04-01T11:30:08.007Z,27.77
2023-04-01T11:31:08.039Z,27.75
2023-04-01T11:32:08.047Z,27.75
2023-04-01T11:33:08.145Z,27.75
2023-04-01T11:34:08.111Z,27.75
2023-04-01T11:35:08.093Z,27.74
2023-04-01T11:36:08.144Z,27.73
2023-04-01T11:37:08.143Z,27.71
2023-04-01T11:38:08.165Z,27.70
2023-04-01T11:39:08.182Z,27.70
2023-04-01T11:40:08.200Z,27.68
2023-04-01T11:41:08.234Z,27.70
2023-04-01T11:42:08.243Z,27.67
2023-04-01T11:43:08.260Z,27.70
2023-04-01T11:44:08.285Z,27.71
2023-04-01T11:45:08.317Z,27.67
2023-04-01T11:46:08.379Z,27.65
2023-04-01T11:47:08.344Z,27.67
2023-04-01T11:48:08.397Z,27.67
2023-04-01T11:49:08.391Z,27.64
2023-04-01T11:50:08.417Z,27.65
2023-04-01T11:51:08.436Z,27.63
2023-04-01T11:52:08.450Z,27.61
2023-04-01T11:53:08.484Z,27.63
2023-04-01T11:54:08.416Z,27.64
2023-04-01T11:55:08.388Z,27.61
2023-04-01T11:56:08.351Z,27.61
2023-04-01T11:57:08.332Z,27.61
2023-04-01T11:58:08.250Z,27.60
2023-04-01T11:59:08.221Z,27.63
2023-04-01T12:00:08.148Z,27.61
2023-04-01T12:01:08.129Z,27.58
2023-04-01T12:02:08.105Z,27.58
2023-04-01T12:03:08.077Z,27.57
2023-04-01T12:04:08.170Z,27.57
2023-04-01T12:05:07.940Z,27.56
2023-04-01T12:06:07.896Z,27.54
2023-04-01T12:07:07.906Z,27.54
2023-04-01T12:08:07.945Z,27.54
2023-04-01T12:09:07.890Z,27.52
2023-04-01T12:10:07.860Z,27.53
2023-04-01T12:11:07.821Z,27.52
2023-04-01T12:12:07.760Z,27.52
2023-04-01T12:13:07.718Z,27.50
2023-04-01T12:14:07.670Z,27.47
2023-04-01T12:15:07.619Z,27.50
2023-04-01T12:16:07.636Z,27.47
2023-04-01T12:17:07.549Z,27.49
2023-04-01T12:18:07.618Z,27.50
2023-04-01T12:19:07.611Z,27.49
2023-04-01T12:20:07.634Z,27.47
2023-04-01T12:21:07.641Z,27.46
2023-04-01T12:22:07.652Z,27.46
2023-04-01T12:23:07.672Z,27.45
2023-04-01T12:24:07.647Z,27.49
2023-04-01T12:25:07.680Z,27.49
2023-04-01T12:26:07.711Z,27.46
2023-04-01T12:27:07.736Z,27.45
2023-04-01T12:28:07.768Z,27.46
2023-04-01T12:29:07.789Z,27.49
2023-04-01T12:30:07.804Z,27.49
2023-04-01T12:31:07.889Z,27.45
2023-04-01T12:32:07.917Z,27.45
2023-04-01T12:33:07.914Z,27.49
2023-04-01T12:34:07.923Z,27.46
2023-04-01T12:35:07.944Z,27.46
2023-04-01T12:36:08.006Z,27.49
2023-04-01T12:37:07.997Z,27.47
2023-04-01T12:38:08.024Z,27.49
2023-04-01T12:39:08.059Z,27.52
2023-04-01T12:40:08.077Z,27.58
2023-04-01T12:41:08.112Z,27.61
2023-04-01T12:42:08.119Z,27.65
2023-04-01T12:43:08.126Z,27.68
2023-04-01T12:44:08.142Z,27.70
2023-04-01T12:45:08.175Z,27.74
2023-04-01T12:46:08.235Z,27.75
2023-04-01T12:47:08.207Z,27.79
2023-04-01T12:48:08.209Z,27.81
2023-04-01T12:49:08.201Z,27.79
2023-04-01T12:50:08.248Z,27.81
2023-04-01T12:51:08.203Z,27.80
2023-04-01T12:52:08.234Z,27.77
2023-04-01T12:53:08.210Z,27.81